createdAt,value
2023-04-25T00:00:18.085Z,89258.94
2023-04-25T00:02:44.343Z,89258.09
2023-04-25T00:05:10.769Z,89257.41
2023-04-25T00:07:36.989Z,89259.28
2023-04-25T00:10:03.177Z,89258.81
2023-04-25T00:12:29.348Z,89251.00
2023-04-25T00:14:55.520Z,89257.56
2023-04-25T00:17:21.777Z,89248.53
2023-04-25T00:19:47.952Z,89257.09
2023-04-25T00:22:14.168Z,89250.56
2023-04-25T00:24:40.338Z,89244.94
2023-04-25T00:27:06.528Z,89238.66
2023-04-25T00:29:32.691Z,89238.00
2023-04-25T00:31:59.111Z,89235.06
2023-04-25T00:34:25.353Z,89245.06
2023-04-25T00:36:51.524Z,89249.06
2023-04-25T00:39:17.697Z,89249.69
2023-04-25T00:41:43.846Z,89243.69
2023-04-25T00:44:10.001Z,89249.13
2023-04-25T00:46:36.191Z,89245.50
2023-04-25T00:49:02.378Z,89243.22
2023-04-25T00:51:28.550Z,89239.03
2023-04-25T00:53:54.723Z,89230.19
2023-04-25T00:56:20.905Z,89228.00
2023-04-25T00:58:47.073Z,89221.75
2023-04-25T01:01:15.319Z,89220.09
2023-04-25T01:03:41.845Z,89219.69
2023-04-25T01:08:45.713Z,89217.25
2023-04-25T01:11:11.859Z,89201.13
2023-04-25T01:13:38.070Z,89201.56
2023-04-25T01:16:04.260Z,89190.63
2023-04-25T01:18:30.485Z,89186.84
2023-04-25T01:20:56.717Z,89174.69
2023-04-25T01:23:22.952Z,89175.03
2023-04-25T01:25:49.142Z,89167.81
2023-04-25T01:28:15.326Z,89164.47
2023-04-25T01:30:41.593Z,89160.09
2023-04-25T01:33:07.850Z,89157.94
2023-04-25T01:35:34.217Z,89148.00
2023-04-25T01:38:00.392Z,89154.09
2023-04-25T01:40:26.544Z,89149.00
2023-04-25T01:42:52.719Z,89157.06
2023-04-25T01:45:18.889Z,89153.53
2023-04-25T01:47:45.134Z,89151.66
2023-04-25T01:50:11.330Z,89156.69
2023-04-25T01:52:37.475Z,89143.00
2023-04-25T01:55:03.638Z,89148.22
2023-04-25T01:57:29.834Z,89153.75
2023-04-25T01:59:56.004Z,89145.69
2023-04-25T02:02:22.263Z,89151.25
2023-04-25T02:04:48.523Z,89145.00
2023-04-25T02:07:14.729Z,89146.56
2023-04-25T02:09:40.898Z,89143.75
2023-04-25T02:12:07.075Z,89145.19
2023-04-25T02:14:33.279Z,89132.28
2023-04-25T02:16:59.694Z,89135.78
2023-04-25T02:19:26.045Z,89123.56
2023-04-25T02:21:52.300Z,89126.78
2023-04-25T02:24:18.555Z,89111.19
2023-04-25T02:26:44.781Z,89109.22
2023-04-25T02:29:11.033Z,89107.38
2023-04-25T02:31:37.387Z,89100.19
2023-04-25T02:34:03.745Z,89103.91
2023-04-25T02:36:29.983Z,89102.19
2023-04-25T02:38:56.252Z,89102.94
2023-04-25T02:41:22.472Z,89102.31
2023-04-25T02:43:49.171Z,89107.97
2023-04-25T02:46:16.449Z,89112.75
2023-04-25T02:48:45.323Z,89109.47
2023-04-25T02:51:11.636Z,89118.75
2023-04-25T02:53:37.873Z,89121.88
2023-04-25T02:56:04.114Z,89126.25
2023-04-25T02:58:30.400Z,89121.94
2023-04-25T03:00:56.686Z,89119.19
2023-04-25T03:03:23.252Z,89120.31
2023-04-25T03:05:49.626Z,89120.00
2023-04-25T03:08:15.870Z,89119.28
2023-04-25T03:10:42.132Z,89109.31
2023-04-25T03:13:08.368Z,89110.06
2023-04-25T03:15:34.601Z,89110.84
2023-04-25T03:18:00.873Z,89106.78
2023-04-25T03:20:27.138Z,89107.72
2023-04-25T03:22:53.374Z,89107.72
2023-04-25T03:25:19.620Z,89114.59
2023-04-25T03:27:45.859Z,89112.84
2023-04-25T03:30:12.136Z,89116.56
2023-04-25T03:32:38.437Z,89115.91
2023-04-25T03:35:04.750Z,89113.28
2023-04-25T03:37:31.104Z,89123.38
2023-04-25T03:39:57.323Z,89123.75
2023-04-25T03:42:23.550Z,89119.34
2023-04-25T03:44:49.867Z,89104.34
2023-04-25T03:47:16.128Z,89106.66
2023-04-25T03:49:42.372Z,89103.16
2023-04-25T03:52:08.625Z,89104.03
2023-04-25T03:54:34.906Z,89107.28
2023-04-25T03:57:01.184Z,89097.38
2023-04-25T03:59:27.417Z,89093.34
2023-04-25T04:01:53.821Z,89093.97
2023-04-25T04:04:20.180Z,89095.56
2023-04-25T04:06:46.552Z,89099.44
2023-04-25T04:09:12.800Z,89102.56
2023-04-25T04:11:39.027Z,89099.75
2023-04-25T04:14:05.281Z,89095.00
2023-04-25T04:16:33.968Z,89092.06
2023-04-25T04:19:00.848Z,89099.75
2023-04-25T04:21:27.102Z,89099.91
2023-04-25T04:23:53.381Z,89104.69
2023-04-25T04:26:19.599Z,89105.00
2023-04-25T04:28:45.884Z,89100.81
2023-04-25T04:31:12.215Z,89116.06
2023-04-25T04:33:38.479Z,89108.97
2023-04-25T04:36:04.759Z,89113.84
2023-04-25T04:38:30.974Z,89113.97
2023-04-25T04:40:57.208Z,89112.25
2023-04-25T04:43:23.453Z,89119.03
2023-04-25T04:45:49.788Z,89121.88
2023-04-25T04:48:16.017Z,89121.88
2023-04-25T04:50:42.258Z,89128.09
2023-04-25T04:53:08.568Z,89130.09
2023-04-25T04:55:34.813Z,89124.97
2023-04-25T04:58:01.058Z,89123.03
2023-04-25T05:00:29.528Z,89130.75
2023-04-25T05:02:56.126Z,89132.34
2023-04-25T05:05:22.497Z,89139.53
2023-04-25T05:07:48.785Z,89138.88
2023-04-25T05:10:15.019Z,89141.44
2023-04-25T05:12:41.302Z,89153.16
2023-04-25T05:15:07.566Z,89151.94
2023-04-25T05:17:33.826Z,89152.41
2023-04-25T05:20:00.186Z,89152.09
2023-04-25T05:22:26.410Z,89157.13
2023-04-25T05:24:55.201Z,89159.44
2023-04-25T05:27:22.264Z,89158.56
2023-04-25T05:29:48.504Z,89155.47
2023-04-25T05:32:14.836Z,89154.16
2023-04-25T05:34:41.397Z,89154.66
2023-04-25T05:37:07.747Z,89155.72
2023-04-25T05:39:34.008Z,89155.88
2023-04-25T05:42:00.279Z,89166.41
2023-04-25T05:44:26.513Z,89167.97
2023-04-25T05:46:52.746Z,89161.50
2023-04-25T05:49:19.758Z,89171.34
2023-04-25T05:51:46.120Z,89156.09
2023-04-25T05:54:12.486Z,89160.13
2023-04-25T05:56:38.772Z,89165.19
2023-04-25T05:59:05.006Z,89160.78
2023-04-25T06:01:31.289Z,89165.63
2023-04-25T06:03:57.994Z,89172.88
2023-04-25T06:06:24.447Z,89168.44
2023-04-25T06:08:50.705Z,89164.47
2023-04-25T06:11:17.005Z,89170.22
2023-04-25T06:13:43.266Z,89171.16
2023-04-25T06:16:09.563Z,89179.50
2023-04-25T06:18:35.863Z,89170.59
2023-04-25T06:21:02.087Z,89173.00
2023-04-25T06:23:28.351Z,89170.38
2023-04-25T06:25:54.599Z,89177.75
2023-04-25T06:28:20.872Z,89191.16
2023-04-25T06:30:47.111Z,89181.75
2023-04-25T06:33:13.512Z,89181.50
2023-04-25T06:35:39.800Z,89187.31
2023-04-25T06:38:06.040Z,89176.84
2023-04-25T06:40:32.329Z,89183.19
2023-04-25T06:42:58.625Z,89190.34
2023-04-25T06:45:24.861Z,89190.53
2023-04-25T06:47:51.222Z,89191.13
2023-04-25T06:50:17.586Z,89182.94
2023-04-25T06:52:43.808Z,89179.22
2023-04-25T06:55:10.136Z,89164.50
2023-04-25T06:57:36.459Z,89160.19
2023-04-25T07:00:02.758Z,89158.84
2023-04-25T07:02:29.244Z,89144.50
2023-04-25T07:04:56.044Z,89159.69
2023-04-25T07:07:22.412Z,89159.22
2023-04-25T07:09:48.664Z,89158.28
2023-04-25T07:12:14.901Z,89163.25
2023-04-25T07:14:41.147Z,89152.38
2023-04-25T07:17:07.372Z,89158.09
2023-04-25T07:19:33.618Z,89152.31
2023-04-25T07:21:59.888Z,89153.75
2023-04-25T07:24:26.156Z,89159.00
2023-04-25T07:26:52.433Z,89152.25
2023-04-25T07:29:18.691Z,89146.50
2023-04-25T07:31:45.062Z,89143.19
2023-04-25T07:34:11.435Z,89151.56
2023-04-25T07:36:37.690Z,89144.53
2023-04-25T07:39:03.944Z,89139.34
2023-04-25T07:41:30.179Z,89136.53
2023-04-25T07:43:56.417Z,89137.34
2023-04-25T07:46:22.744Z,89136.44
2023-04-25T07:48:49.216Z,89139.84
2023-04-25T07:51:15.888Z,89143.13
2023-04-25T07:53:42.202Z,89147.94
2023-04-25T07:56:08.487Z,89150.03
2023-04-25T07:58:34.731Z,89156.66
2023-04-25T08:01:01.076Z,89165.16
2023-04-25T08:03:27.645Z,89161.88
2023-04-25T08:05:54.317Z,89165.13
2023-04-25T08:08:20.793Z,89176.09
2023-04-25T08:10:47.073Z,89177.72
2023-04-25T08:13:13.372Z,89191.66
2023-04-25T08:15:39.695Z,89202.13
2023-04-25T08:18:06.082Z,89205.63
2023-04-25T08:20:32.362Z,89210.50
2023-04-25T08:22:58.596Z,89208.06
2023-04-25T08:25:24.858Z,89213.00
2023-04-25T08:27:51.086Z,89212.22
2023-04-25T08:30:17.354Z,89218.38
2023-04-25T08:32:43.663Z,89217.50
2023-04-25T08:35:09.915Z,89209.25
2023-04-25T08:37:36.159Z,89213.34
2023-04-25T08:40:02.404Z,89227.38
2023-04-25T08:42:28.730Z,89237.00
2023-04-25T08:44:55.026Z,89227.84
2023-04-25T08:47:21.259Z,89228.66
2023-04-25T08:49:47.499Z,89236.03
2023-04-25T08:52:13.745Z,89233.63
2023-04-25T08:54:41.710Z,89243.88
2023-04-25T08:57:08.582Z,89257.53
2023-04-25T08:59:36.201Z,89258.13
2023-04-25T09:02:04.139Z,89262.72
2023-04-25T09:04:30.445Z,89276.91
2023-04-25T09:06:56.712Z,89271.19
2023-04-25T09:09:22.992Z,89269.19
2023-04-25T09:11:49.259Z,89283.41
2023-04-25T09:14:15.522Z,89281.94
2023-04-25T09:16:41.795Z,89283.84
2023-04-25T09:19:08.061Z,89295.28
2023-04-25T09:21:34.319Z,89308.13
2023-04-25T09:24:00.584Z,89312.16
2023-04-25T09:26:26.854Z,89316.06
2023-04-25T09:28:53.085Z,89309.53
2023-04-25T09:31:19.426Z,89307.56
2023-04-25T09:33:45.769Z,89303.31
2023-04-25T09:36:12.103Z,89292.47
2023-04-25T09:38:38.416Z,89283.00
2023-04-25T09:41:04.660Z,89289.97
2023-04-25T09:43:30.924Z,89298.47
2023-04-25T09:45:58.790Z,89303.88
2023-04-25T09:48:25.349Z,89301.44
2023-04-25T09:50:51.618Z,89306.03
2023-04-25T09:53:17.872Z,89302.91
2023-04-25T09:55:44.135Z,89305.03
2023-04-25T09:58:10.409Z,89296.88
2023-04-25T10:00:36.732Z,89307.19
2023-04-25T10:03:03.047Z,89297.16
2023-04-25T10:05:29.390Z,89292.31
2023-04-25T10:07:55.639Z,89300.44
2023-04-25T10:10:21.873Z,89298.00
2023-04-25T10:12:48.100Z,89293.94
2023-04-25T10:15:14.363Z,89300.75
2023-04-25T10:17:40.703Z,89291.59
2023-04-25T10:20:06.986Z,89285.81
2023-04-25T10:22:33.243Z,89288.69
2023-04-25T10:24:59.474Z,89280.94
2023-04-25T10:27:25.715Z,89281.66
2023-04-25T10:29:51.985Z,89283.41
2023-04-25T10:32:18.351Z,89282.38
2023-04-25T10:34:44.720Z,89274.75
2023-04-25T10:37:10.965Z,89283.47
2023-04-25T10:39:37.232Z,89279.38
2023-04-25T10:42:03.515Z,89279.13
2023-04-25T10:44:29.740Z,89290.31
2023-04-25T10:46:56.041Z,89278.91
2023-04-25T10:49:22.293Z,89286.19
2023-04-25T10:51:55.458Z,89283.63
2023-04-25T10:54:22.139Z,89284.97
2023-04-25T10:56:48.418Z,89284.16
2023-04-25T10:59:14.658Z,89278.16
2023-04-25T11:01:40.962Z,89290.25
2023-04-25T11:04:07.524Z,89284.56
2023-04-25T11:06:33.862Z,89282.22
2023-04-25T11:09:00.151Z,89292.63
2023-04-25T11:11:26.436Z,89296.84
2023-04-25T11:13:52.665Z,89300.88
2023-04-25T11:16:27.659Z,89300.13
2023-04-25T11:18:54.812Z,89292.22
2023-04-25T11:21:21.090Z,89285.63
2023-04-25T11:23:47.383Z,89307.47
2023-04-25T11:26:13.628Z,89297.78
2023-04-25T11:28:39.895Z,89300.63
2023-04-25T11:31:06.148Z,89303.13
2023-04-25T11:33:32.398Z,89316.06
2023-04-25T11:35:58.626Z,89314.59
2023-04-25T11:38:26.120Z,89313.72
2023-04-25T11:40:53.460Z,89316.13
2023-04-25T11:43:21.628Z,89324.72
2023-04-25T11:45:48.113Z,89325.22
2023-04-25T11:48:15.158Z,89324.19
2023-04-25T11:50:41.799Z,89325.19
2023-04-25T11:53:08.089Z,89330.81
2023-04-25T11:55:34.316Z,89325.75
2023-04-25T11:58:00.562Z,89322.72
2023-04-25T12:00:26.828Z,89326.63
2023-04-25T12:02:53.191Z,89324.66
2023-04-25T12:05:31.195Z,89333.44
2023-04-25T12:07:58.754Z,89327.03
2023-04-25T12:10:25.025Z,89330.28
2023-04-25T12:12:51.257Z,89324.16
2023-04-25T12:15:17.531Z,89339.34
2023-04-25T12:17:43.827Z,89337.44
2023-04-25T12:20:10.178Z,89340.41
2023-04-25T12:22:36.686Z,89343.13
2023-04-25T12:25:03.004Z,89350.06
2023-04-25T12:27:29.715Z,89338.16
2023-04-25T12:29:56.055Z,89343.75
2023-04-25T12:32:22.346Z,89346.13
2023-04-25T12:34:48.630Z,89361.00
2023-04-25T12:37:14.880Z,89357.34
2023-04-25T12:39:41.138Z,89347.03
2023-04-25T12:42:09.511Z,89351.63
2023-04-25T12:44:36.148Z,89357.53
2023-04-25T12:47:02.578Z,89357.72
2023-04-25T12:49:28.924Z,89348.06
2023-04-25T12:51:55.174Z,89341.53
2023-04-25T12:54:21.416Z,89356.97
2023-04-25T12:56:47.665Z,89343.31
2023-04-25T12:59:13.895Z,89353.91
2023-04-25T13:01:40.330Z,89352.66
2023-04-25T13:04:06.922Z,89349.59
2023-04-25T13:06:33.225Z,89354.47
2023-04-25T13:08:59.480Z,89356.72
2023-04-25T13:11:25.708Z,89357.53
2023-04-25T13:13:52.121Z,89351.56
2023-04-25T13:16:18.934Z,89357.00
2023-04-25T13:18:45.268Z,89346.19
2023-04-25T13:21:11.504Z,89348.50
2023-04-25T13:23:37.750Z,89351.00
2023-04-25T13:26:03.998Z,89344.59
2023-04-25T13:28:31.823Z,89357.06
2023-04-25T13:30:58.122Z,89351.00
2023-04-25T13:33:24.358Z,89353.94
2023-04-25T13:35:50.609Z,89358.22
2023-04-25T13:38:16.866Z,89353.31
2023-04-25T13:40:43.143Z,89365.31
2023-04-25T13:43:09.430Z,89353.41
2023-04-25T13:45:35.676Z,89356.19
2023-04-25T13:48:02.050Z,89357.28
2023-04-25T13:50:28.370Z,89356.44
2023-04-25T13:52:54.594Z,89360.91
2023-04-25T13:55:20.842Z,89365.16
2023-04-25T13:57:47.080Z,89365.19
2023-04-25T14:00:13.296Z,89368.94
2023-04-25T14:02:39.594Z,89376.44
2023-04-25T14:05:05.990Z,89368.47
2023-04-25T14:07:32.288Z,89376.88
2023-04-25T14:09:58.528Z,89376.75
2023-04-25T14:12:24.811Z,89380.66
2023-04-25T14:14:51.097Z,89387.97
2023-04-25T14:17:17.696Z,89375.16
2023-04-25T14:19:44.028Z,89383.19
2023-04-25T14:22:10.304Z,89381.41
2023-04-25T14:24:36.531Z,89378.25
2023-04-25T14:27:02.779Z,89378.84
2023-04-25T14:29:29.010Z,89370.50
2023-04-25T14:31:55.321Z,89383.69
2023-04-25T14:34:21.683Z,89377.22
2023-04-25T14:36:47.995Z,89370.88
2023-04-25T14:39:14.422Z,89380.06
2023-04-25T14:41:40.664Z,89377.53
2023-04-25T14:44:08.776Z,89367.63
2023-04-25T14:46:35.041Z,89383.00
2023-04-25T14:49:01.343Z,89377.13
2023-04-25T14:51:27.594Z,89378.34
2023-04-25T14:53:54.003Z,89390.94
2023-04-25T14:56:20.396Z,89383.22
2023-04-25T14:58:46.687Z,89382.22
2023-04-25T15:01:12.998Z,89380.78
2023-04-25T15:03:39.519Z,89368.25
2023-04-25T15:06:05.870Z,89371.50
2023-04-25T15:08:32.119Z,89382.91
2023-04-25T15:10:59.407Z,89372.19
2023-04-25T15:13:25.719Z,89373.97
2023-04-25T15:15:52.227Z,89368.25
2023-04-25T15:18:18.655Z,89375.63
2023-04-25T15:20:44.923Z,89377.84
2023-04-25T15:23:11.194Z,89371.66
2023-04-25T15:25:37.496Z,89373.75
2023-04-25T15:28:03.855Z,89370.47
2023-04-25T15:30:30.121Z,89375.22
2023-04-25T15:32:56.509Z,89378.97
2023-04-25T15:35:22.795Z,89379.81
2023-04-25T15:37:49.050Z,89366.88
2023-04-25T15:40:15.320Z,89380.97
2023-04-25T15:42:41.536Z,89384.03
2023-04-25T15:45:07.849Z,89385.09
2023-04-25T15:47:34.142Z,89380.56
2023-04-25T15:50:00.451Z,89387.28
2023-04-25T15:52:26.706Z,89384.25
2023-04-25T15:54:52.952Z,89380.00
2023-04-25T15:57:19.221Z,89386.13
2023-04-25T15:59:45.483Z,89383.00
2023-04-25T16:02:11.724Z,89386.47
2023-04-25T16:04:38.092Z,89389.38
2023-04-25T16:07:04.379Z,89400.25
2023-04-25T16:09:31.868Z,89402.38
2023-04-25T16:11:59.177Z,89396.47
2023-04-25T16:14:25.402Z,89400.66
2023-04-25T16:16:51.660Z,89416.28
2023-04-25T16:19:17.901Z,89404.59
2023-04-25T16:21:44.204Z,89411.53
2023-04-25T16:24:10.509Z,89410.38
2023-04-25T16:26:36.723Z,89409.59
2023-04-25T16:29:02.981Z,89413.19
2023-04-25T16:31:29.295Z,89416.47
2023-04-25T16:33:55.548Z,89411.63
2023-04-25T16:36:21.796Z,89413.72
2023-04-25T16:38:48.085Z,89418.16
2023-04-25T16:41:14.559Z,89411.38
2023-04-25T16:43:40.843Z,89408.03
2023-04-25T16:46:07.054Z,89416.31
2023-04-25T16:48:33.295Z,89407.78
2023-04-25T16:50:59.546Z,89415.63
2023-04-25T16:53:25.776Z,89409.44
2023-04-25T16:55:52.017Z,89414.00
2023-04-25T16:58:18.242Z,89420.22
2023-04-25T17:00:44.508Z,89422.75
2023-04-25T17:03:11.082Z,89423.41
2023-04-25T17:05:37.405Z,89427.00
2023-04-25T17:08:03.648Z,89430.72
2023-04-25T17:10:29.931Z,89426.75
2023-04-25T17:12:56.186Z,89433.44
2023-04-25T17:15:22.409Z,89435.78
2023-04-25T17:17:48.674Z,89446.50
2023-04-25T17:20:14.978Z,89438.28
2023-04-25T17:22:41.239Z,89451.56
2023-04-25T17:25:07.552Z,89452.50
2023-04-25T17:27:33.856Z,89448.63
2023-04-25T17:30:00.213Z,89454.66
2023-04-25T17:32:26.511Z,89459.66
2023-04-25T17:34:52.773Z,89468.09
2023-04-25T17:37:19.015Z,89465.78
2023-04-25T17:39:45.269Z,89466.63
2023-04-25T17:42:11.527Z,89463.66
2023-04-25T17:44:37.804Z,89470.81
2023-04-25T17:47:04.377Z,89468.28
2023-04-25T17:49:31.382Z,89464.50
2023-04-25T17:51:57.616Z,89472.00
2023-04-25T17:54:23.842Z,89477.91
2023-04-25T17:56:50.124Z,89470.22
2023-04-25T17:59:16.420Z,89474.44
2023-04-25T18:01:47.667Z,89485.75
2023-04-25T18:04:14.398Z,89491.88
2023-04-25T18:06:40.658Z,89491.03
2023-04-25T18:09:06.939Z,89491.09
2023-04-25T18:11:33.233Z,89491.69
2023-04-25T18:13:59.467Z,89492.25
2023-04-25T18:16:25.723Z,89492.97
2023-04-25T18:18:52.248Z,89492.78
2023-04-25T18:21:18.811Z,89495.88
2023-04-25T18:23:45.126Z,89503.13
2023-04-25T18:26:11.432Z,89505.94
2023-04-25T18:28:37.676Z,89498.47
2023-04-25T18:31:03.984Z,89495.19
2023-04-25T18:33:30.266Z,89500.91
2023-04-25T18:35:59.139Z,89507.59
2023-04-25T18:38:35.577Z,89513.06
2023-04-25T18:41:18.235Z,89511.63
2023-04-25T18:43:48.769Z,89521.03
2023-04-25T18:46:15.170Z,89524.97
2023-04-25T18:48:41.453Z,89525.88
2023-04-25T18:51:07.758Z,89531.69
2023-04-25T18:53:34.018Z,89534.19
2023-04-25T18:56:00.262Z,89529.34
2023-04-25T18:58:26.536Z,89533.75
2023-04-25T19:00:52.936Z,89543.63
2023-04-25T19:03:19.430Z,89539.00
2023-04-25T19:05:45.887Z,89542.75
2023-04-25T19:08:12.183Z,89548.19
2023-04-25T19:10:38.408Z,89536.63
2023-04-25T19:13:04.641Z,89543.19
2023-04-25T19:15:30.863Z,89547.91
2023-04-25T19:17:57.125Z,89550.47
2023-04-25T19:20:23.389Z,89545.16
2023-04-25T19:22:49.630Z,89549.88
2023-04-25T19:25:15.875Z,89544.47
2023-04-25T19:27:42.122Z,89550.13
2023-04-25T19:30:08.400Z,89553.56
2023-04-25T19:32:34.731Z,89558.25
2023-04-25T19:35:00.982Z,89549.38
2023-04-25T19:37:27.237Z,89549.16
2023-04-25T19:39:53.496Z,89559.63
2023-04-25T19:42:19.738Z,89555.22
2023-04-25T19:44:45.985Z,89556.66
2023-04-25T19:47:12.252Z,89557.06
2023-04-25T19:49:38.528Z,89558.16
2023-04-25T19:52:04.873Z,89558.94
2023-04-25T19:54:31.108Z,89563.09
2023-04-25T19:56:57.352Z,89563.22
2023-04-25T19:59:23.596Z,89569.34
2023-04-25T20:01:49.857Z,89564.94
2023-04-25T20:04:16.130Z,89564.00
2023-04-25T20:06:42.380Z,89561.69
2023-04-25T20:09:08.600Z,89570.06
2023-04-25T20:11:34.834Z,89562.94
2023-04-25T20:14:01.097Z,89569.25
2023-04-25T20:16:27.452Z,89559.47
2023-04-25T20:18:54.190Z,89562.50
2023-04-25T20:21:20.724Z,89570.06
2023-04-25T20:23:46.973Z,89567.25
2023-04-25T20:26:13.218Z,89570.28
2023-04-25T20:28:39.574Z,89572.97
2023-04-25T20:31:05.830Z,89573.53
2023-04-25T20:33:32.152Z,89569.34
2023-04-25T20:35:58.407Z,89570.75
2023-04-25T20:38:24.656Z,89565.25
2023-04-25T20:40:50.895Z,89564.56
2023-04-25T20:43:17.123Z,89569.63
2023-04-25T20:45:43.401Z,89570.69
2023-04-25T20:48:09.654Z,89567.22
2023-04-25T20:50:36.111Z,89559.94
2023-04-25T20:53:02.385Z,89558.72
2023-04-25T20:55:28.627Z,89563.84
2023-04-25T20:57:54.864Z,89565.31
2023-04-25T21:00:21.098Z,89564.59
2023-04-25T21:02:47.602Z,89563.25
2023-04-25T21:05:14.069Z,89564.84
2023-04-25T21:07:40.307Z,89561.81
2023-04-25T21:10:06.544Z,89558.06
2023-04-25T21:12:32.802Z,89550.84
2023-04-25T21:14:59.069Z,89555.00
2023-04-25T21:17:25.346Z,89553.41
2023-04-25T21:19:51.585Z,89552.91
2023-04-25T21:22:17.848Z,89555.59
2023-04-25T21:24:44.101Z,89554.00
2023-04-25T21:27:10.347Z,89555.34
2023-04-25T21:29:36.588Z,89561.25
2023-04-25T21:32:02.824Z,89556.38
2023-04-25T21:34:29.053Z,89566.44
2023-04-25T21:36:55.292Z,89563.88
2023-04-25T21:39:21.515Z,89568.31
2023-04-25T21:41:47.776Z,89562.41
2023-04-25T21:44:14.005Z,89567.75
2023-04-25T21:46:40.263Z,89575.16
2023-04-25T21:49:06.532Z,89568.84
2023-04-25T21:51:32.803Z,89566.28
2023-04-25T21:53:59.059Z,89566.94
2023-04-25T21:56:25.278Z,89566.09
2023-04-25T21:58:51.755Z,89566.94
2023-04-25T22:01:18.114Z,89562.47
2023-04-25T22:03:44.738Z,89562.41
2023-04-25T22:06:11.116Z,89561.69
2023-04-25T22:08:37.332Z,89566.03
2023-04-25T22:11:03.604Z,89567.94
2023-04-25T22:13:29.847Z,89572.13
2023-04-25T22:15:56.165Z,89574.56
2023-04-25T22:18:22.426Z,89568.84
2023-04-25T22:20:48.669Z,89574.00
2023-04-25T22:23:14.910Z,89574.47
2023-04-25T22:25:41.148Z,89587.06
2023-04-25T22:28:07.365Z,89578.53
2023-04-25T22:30:33.587Z,89586.84
2023-04-25T22:32:59.885Z,89588.81
2023-04-25T22:35:26.152Z,89584.66
2023-04-25T22:37:52.448Z,89580.97
2023-04-25T22:40:18.673Z,89582.44
2023-04-25T22:42:44.923Z,89584.25
2023-04-25T22:45:11.236Z,89590.66
2023-04-25T22:47:37.543Z,89587.19
2023-04-25T22:50:03.792Z,89587.50
2023-04-25T22:52:30.026Z,89583.31
2023-04-25T22:54:56.245Z,89586.94
2023-04-25T22:57:22.484Z,89598.09
2023-04-25T22:59:48.742Z,89586.84
2023-04-25T23:02:15.144Z,89596.09
2023-04-25T23:04:41.439Z,89594.94
2023-04-25T23:07:07.699Z,89595.31
2023-04-25T23:09:33.952Z,89601.66
2023-04-25T23:12:00.193Z,89604.25
2023-04-25T23:14:26.419Z,89606.00
2023-04-25T23:16:52.757Z,89602.78
2023-04-25T23:19:19.023Z,89606.59
2023-04-25T23:21:45.272Z,89605.06
2023-04-25T23:24:11.512Z,89599.84
2023-04-25T23:26:37.765Z,89606.88
2023-04-25T23:29:04.016Z,89598.94
2023-04-25T23:31:30.259Z,89602.69
2023-04-25T23:33:56.526Z,89608.72
2023-04-25T23:36:22.788Z,89615.50
2023-04-25T23:38:49.078Z,89606.91
2023-04-25T23:41:15.317Z,89610.28
2023-04-25T23:43:41.564Z,89611.81
2023-04-25T23:46:08.670Z,89608.06
2023-04-25T23:48:34.959Z,89605.41
2023-04-25T23:51:01.192Z,89619.25
2023-04-25T23:53:27.444Z,89616.28
2023-04-25T23:55:53.690Z,89609.19
2023-04-25T23:58:19.915Z,89611.81
